Time;durP1;ratioP1;P1;durP2;ratioP2;P2;SDS_P1;SDS_P2;PMS_P1;PMS_P2;Temp;Humidity;BMP_temperature;BMP_pressure;BME280_temperature;BME280_humidity;BME280_pressure;Samples;Min_cycle;Max_cycle;Signal;HPM_P1;HPM_P2
2020/12/16 00:01:17;;;;;;;167.02;48.55;;;;;;;5.21;99.68;101479.91;5026566;28;20559;-72
2020/12/16 00:03:44;;;;;;;117.75;43.58;;;;;;;5.30;100.00;101496.94;5025675;28;20041;-75
2020/12/16 00:06:09;;;;;;;141.88;41.97;;;;;;;5.35;100.00;101499.31;5019397;28;20113;-76
2020/12/16 00:08:35;;;;;;;123.60;44.60;;;;;;;5.35;99.54;101494.84;5022197;28;20105;-76
2020/12/16 00:11:00;;;;;;;122.47;45.97;;;;;;;5.33;100.00;101494.09;5019816;28;20137;-75
2020/12/16 00:13:26;;;;;;;144.13;45.83;;;;;;;5.31;100.00;101496.00;5021869;28;20160;-76
2020/12/16 00:15:51;;;;;;;105.28;44.38;;;;;;;5.29;100.00;101505.00;5011738;28;20066;-72
2020/12/16 00:18:17;;;;;;;129.70;46.05;;;;;;;5.25;100.00;101504.34;5002467;28;20033;-76
2020/12/16 00:20:43;;;;;;;146.55;43.47;;;;;;;5.15;100.00;101477.66;5015637;28;20068;-72
2020/12/16 00:23:10;;;;;;;209.85;48.80;;;;;;;4.97;99.74;101455.91;5015461;28;20080;-76
2020/12/16 00:25:35;;;;;;;83.25;42.58;;;;;;;5.21;100.00;101495.78;5020971;28;20037;-72
2020/12/16 00:28:01;;;;;;;134.93;46.75;;;;;;;5.15;99.98;101490.06;5011103;28;20125;-75
2020/12/16 00:30:26;;;;;;;128.73;45.75;;;;;;;4.96;100.00;101458.66;5015319;28;20068;-76
2020/12/16 00:32:52;;;;;;;93.38;46.95;;;;;;;5.13;99.97;101489.31;5000887;28;20124;-76
2020/12/16 00:35:17;;;;;;;93.60;47.38;;;;;;;5.10;100.00;101498.28;5019749;28;20121;-76
2020/12/16 00:37:43;;;;;;;116.60;49.85;;;;;;;5.13;100.00;101499.88;5020476;28;20056;-75
2020/12/16 00:40:12;;;;;;;101.03;47.08;;;;;;;5.14;100.00;101496.28;5016137;28;20114;-72
2020/12/16 00:42:38;;;;;;;103.20;46.30;;;;;;;5.16;100.00;101497.00;5014197;28;20038;-75
2020/12/16 00:45:05;;;;;;;114.28;48.15;;;;;;;5.19;100.00;101488.88;5012290;28;20056;-73
2020/12/16 00:47:34;;;;;;;114.65;50.45;;;;;;;5.06;100.00;101471.16;5035229;28;20057;-75
2020/12/16 00:50:00;;;;;;;102.15;47.65;;;;;;;5.19;100.00;101495.03;5024819;28;20037;-75
2020/12/16 00:52:27;;;;;;;106.78;49.53;;;;;;;5.19;100.00;101491.53;5034595;28;20056;-76
2020/12/16 00:54:53;;;;;;;96.20;47.77;;;;;;;5.00;100.00;101466.31;5021962;28;20041;-75
2020/12/16 00:57:19;;;;;;;108.32;53.20;;;;;;;5.17;100.00;101493.41;5022687;28;20467;-75
2020/12/16 00:59:44;;;;;;;104.13;51.38;;;;;;;5.18;100.00;101497.75;5035539;28;20046;-75
2020/12/16 01:02:10;;;;;;;105.03;49.10;;;;;;;5.13;100.00;101484.84;5023864;28;20140;-75
2020/12/16 01:04:35;;;;;;;99.93;48.15;;;;;;;5.08;100.00;101473.75;5021131;28;20370;-75
2020/12/16 01:07:01;;;;;;;105.70;47.65;;;;;;;5.24;100.00;101505.31;5022322;28;20123;-72
2020/12/16 01:09:26;;;;;;;97.10;46.85;;;;;;;5.26;100.00;101507.84;5033530;28;20040;-75
2020/12/16 01:11:52;;;;;;;90.25;44.05;;;;;;;5.25;99.99;101514.09;5038701;28;20127;-75
2020/12/16 01:14:17;;;;;;;103.53;47.83;;;;;;;5.19;99.89;101513.56;5039412;28;20123;-76
2020/12/16 01:16:43;;;;;;;171.77;46.05;;;;;;;5.26;100.00;101518.44;5008424;28;21897;-76
2020/12/16 01:19:08;;;;;;;91.47;44.72;;;;;;;5.20;100.00;101520.56;5035816;28;20483;-75
2020/12/16 01:21:35;;;;;;;142.02;46.53;;;;;;;5.18;100.00;101533.03;5018847;28;20522;-75
2020/12/16 01:24:02;;;;;;;86.78;44.20;;;;;;;5.05;100.00;101521.56;5033598;28;20068;-75
2020/12/16 01:26:27;;;;;;;119.13;47.88;;;;;;;5.15;99.75;101543.81;5015369;28;20044;-75
2020/12/16 01:28:53;;;;;;;122.90;45.25;;;;;;;5.04;100.00;101531.28;4992288;28;20068;-75
2020/12/16 01:31:18;;;;;;;125.63;44.17;;;;;;;4.98;100.00;101517.59;5018321;28;20128;-77
2020/12/16 01:33:44;;;;;;;104.70;43.53;;;;;;;5.05;100.00;101524.19;5028065;28;20128;-75
2020/12/16 01:36:10;;;;;;;126.65;47.15;;;;;;;4.76;99.88;101479.34;5017929;28;20491;-75
2020/12/16 01:38:36;;;;;;;101.90;47.53;;;;;;;5.02;100.00;101534.97;5015566;28;20041;-76
2020/12/16 01:41:05;;;;;;;104.35;45.05;;;;;;;5.03;100.00;101532.22;5034974;28;20068;-73
2020/12/16 01:43:35;;;;;;;114.43;45.20;;;;;;;4.99;100.00;101540.44;5040156;28;20029;-75
2020/12/16 01:46:01;;;;;;;145.63;43.05;;;;;;;4.96;100.00;101541.50;5039497;28;20079;-76
2020/12/16 01:48:26;;;;;;;132.60;42.05;;;;;;;4.94;100.00;101545.22;5043059;28;20488;-73
2020/12/16 01:50:52;;;;;;;89.57;39.90;;;;;;;4.89;100.00;101549.00;5025944;28;20763;-75
2020/12/16 01:53:17;;;;;;;118.70;41.97;;;;;;;4.72;99.51;101528.94;5020196;28;20499;-73
2020/12/16 01:55:43;;;;;;;149.45;42.53;;;;;;;4.84;99.90;101551.06;5020699;28;20566;-75
2020/12/16 01:58:09;;;;;;;148.15;43.67;;;;;;;4.86;99.61;101551.84;5017363;28;20063;-75
2020/12/16 02:00:34;;;;;;;107.57;40.30;;;;;;;4.87;99.76;101547.41;5000096;28;20120;-75
2020/12/16 02:03:00;;;;;;;126.05;39.38;;;;;;;4.82;99.65;101546.84;5006019;28;20060;-75
2020/12/16 02:05:25;;;;;;;115.35;39.83;;;;;;;4.81;99.24;101546.00;5021724;28;20125;-72
2020/12/16 02:07:51;;;;;;;108.70;39.72;;;;;;;4.73;99.57;101535.91;5016760;28;20088;-72
2020/12/16 02:10:17;;;;;;;123.63;38.95;;;;;;;4.76;99.25;101534.88;5034594;28;20033;-75
2020/12/16 02:12:42;;;;;;;99.55;41.03;;;;;;;4.73;100.00;101532.41;5042200;28;20123;-73
2020/12/16 02:15:08;;;;;;;154.88;41.80;;;;;;;4.73;99.85;101529.75;5026896;28;20120;-76
2020/12/16 02:17:34;;;;;;;126.57;44.80;;;;;;;4.54;99.52;101490.44;5009341;28;20033;-76
2020/12/16 02:20:00;;;;;;;134.80;42.42;;;;;;;4.69;100.00;101517.69;5023245;28;20652;-75
2020/12/16 02:22:26;;;;;;;76.32;40.28;;;;;;;4.71;99.63;101523.72;5024229;28;20108;-72
2020/12/16 02:25:02;;;;;;;109.55;42.65;;;;;;;4.72;99.30;101523.63;5037214;28;20053;-76
2020/12/16 02:27:28;;;;;;;87.78;43.03;;;;;;;4.69;99.91;101533.53;5004696;28;20042;-75
2020/12/16 02:29:54;;;;;;;91.90;43.30;;;;;;;4.68;100.00;101531.88;5026807;28;20061;-75
2020/12/16 02:32:20;;;;;;;81.00;42.25;;;;;;;4.51;100.00;101519.69;5038347;28;20098;-76
2020/12/16 02:34:45;;;;;;;96.32;45.38;;;;;;;4.60;100.00;101535.84;5019572;28;20486;-75
2020/12/16 02:37:11;;;;;;;90.45;45.25;;;;;;;4.64;100.00;101535.66;5035806;28;20057;-75
2020/12/16 02:39:37;;;;;;;86.25;45.47;;;;;;;4.64;99.97;101531.19;5026133;28;20095;-72
2020/12/16 02:42:03;;;;;;;124.28;48.25;;;;;;;4.60;99.59;101535.00;5038555;28;20124;-72
2020/12/16 02:44:29;;;;;;;84.78;46.42;;;;;;;4.62;99.74;101529.59;5041216;28;20066;-76
2020/12/16 02:46:58;;;;;;;120.72;45.95;;;;;;;4.64;100.00;101531.19;5028879;28;20131;-75
2020/12/16 02:49:24;;;;;;;103.97;45.53;;;;;;;4.64;99.98;101531.19;5024414;28;20700;-76
2020/12/16 02:51:49;;;;;;;110.38;45.08;;;;;;;4.61;100.00;101552.56;5022612;28;20056;-77
2020/12/16 02:54:15;;;;;;;91.57;46.35;;;;;;;4.64;99.67;101544.41;5022400;28;20040;-72
2020/12/16 02:56:40;;;;;;;89.63;47.83;;;;;;;4.59;100.00;101542.06;5041389;28;20135;-75
2020/12/16 02:59:06;;;;;;;95.07;45.30;;;;;;;4.65;100.00;101543.47;5041502;28;20138;-72
2020/12/16 03:01:31;;;;;;;86.70;44.75;;;;;;;4.62;99.80;101540.19;5010664;28;20127;-72
2020/12/16 03:03:57;;;;;;;110.35;47.03;;;;;;;4.59;99.97;101539.41;5028626;28;20124;-75
2020/12/16 03:06:22;;;;;;;131.63;46.53;;;;;;;4.62;99.98;101535.72;5043972;28;20132;-75
2020/12/16 03:08:48;;;;;;;151.63;46.75;;;;;;;4.56;99.16;101536.97;5038438;28;20047;-77
2020/12/16 03:11:19;;;;;;;165.15;44.83;;;;;;;4.51;99.33;101528.50;5043729;28;20425;-75
2020/12/16 03:13:45;;;;;;;116.50;44.63;;;;;;;4.56;99.16;101536.13;5017855;28;20055;-75
2020/12/16 03:16:17;;;;;;;111.85;43.60;;;;;;;4.53;99.57;101537.19;5026746;28;20030;-73
2020/12/16 03:18:42;;;;;;;118.10;41.08;;;;;;;4.59;99.10;101541.22;5026032;28;20028;-72
2020/12/16 03:21:08;;;;;;;94.18;40.83;;;;;;;4.54;98.64;101538.88;5038472;28;20509;-72
2020/12/16 03:23:35;;;;;;;146.60;43.67;;;;;;;4.47;99.08;101542.00;5022810;28;21101;-75
2020/12/16 03:26:04;;;;;;;108.10;43.53;;;;;;;4.47;98.79;101534.91;5040798;28;20033;-75
2020/12/16 03:28:29;;;;;;;85.50;43.33;;;;;;;4.49;98.78;101540.94;5018654;28;20033;-76
2020/12/16 03:30:55;;;;;;;133.55;43.53;;;;;;;4.46;98.98;101543.78;5036963;28;20564;-79
2020/12/16 03:33:20;;;;;;;81.00;42.92;;;;;;;4.43;99.45;101543.97;5019531;28;20101;-76
2020/12/16 03:35:46;;;;;;;113.18;44.85;;;;;;;4.48;99.64;101549.00;5040452;28;20204;-77
2020/12/16 03:38:11;;;;;;;134.80;47.40;;;;;;;4.47;99.13;101539.38;5019264;28;20732;-75
2020/12/16 03:40:37;;;;;;;147.32;46.60;;;;;;;4.47;99.27;101539.38;5037136;28;20586;-75
2020/12/16 03:43:02;;;;;;;166.85;51.15;;;;;;;4.14;99.57;101499.06;5037278;28;20133;-75
2020/12/16 03:45:28;;;;;;;171.20;50.60;;;;;;;4.48;100.00;101551.63;5025154;28;20094;-73
2020/12/16 03:47:53;;;;;;;136.32;53.42;;;;;;;4.50;100.00;101544.44;5008391;28;20033;-72
2020/12/16 03:50:19;;;;;;;164.82;55.33;;;;;;;4.54;99.88;101549.47;5036049;28;20038;-76
2020/12/16 03:52:44;;;;;;;121.88;53.90;;;;;;;4.60;99.90;101537.66;5040143;28;20338;-75
2020/12/16 03:55:10;;;;;;;118.45;53.28;;;;;;;4.64;100.00;101543.56;5018671;28;20136;-75
2020/12/16 03:57:35;;;;;;;125.05;53.63;;;;;;;4.68;100.00;101545.09;5038463;28;20104;-75
2020/12/16 04:00:01;;;;;;;128.23;58.40;;;;;;;4.73;100.00;101540.34;5034556;28;20499;-75
2020/12/16 04:02:26;;;;;;;173.50;60.80;;;;;;;4.77;100.00;101541.00;5035927;28;20125;-75
2020/12/16 04:04:52;;;;;;;151.15;59.40;;;;;;;4.81;100.00;101538.06;5038428;28;20044;-75
2020/12/16 04:07:17;;;;;;;145.60;59.20;;;;;;;4.84;100.00;101535.22;5038413;28;20047;-75
2020/12/16 04:09:43;;;;;;;133.50;58.38;;;;;;;4.84;100.00;101532.56;5039505;28;20033;-72
2020/12/16 04:12:08;;;;;;;119.78;57.05;;;;;;;4.91;100.00;101535.66;5042949;28;20055;-75
2020/12/16 04:14:34;;;;;;;141.15;54.97;;;;;;;4.93;100.00;101540.88;5044402;28;20093;-75
2020/12/16 04:16:59;;;;;;;122.25;53.50;;;;;;;4.94;100.00;101545.22;5036207;28;20052;-75
2020/12/16 04:19:25;;;;;;;146.45;53.00;;;;;;;4.93;100.00;101546.16;5035817;28;20475;-75
2020/12/16 04:21:54;;;;;;;129.88;50.05;;;;;;;4.90;100.00;101549.84;5034215;28;20140;-72
2020/12/16 04:24:20;;;;;;;104.28;49.28;;;;;;;4.89;100.00;101543.72;5010648;28;20039;-75
2020/12/16 04:26:46;;;;;;;162.45;49.97;;;;;;;4.94;100.00;101551.34;5037740;28;20069;-80
2020/12/16 04:29:11;;;;;;;120.28;47.58;;;;;;;4.95;99.95;101546.91;5021723;28;20064;-74
2020/12/16 04:31:37;;;;;;;120.80;49.72;;;;;;;4.88;99.58;101547.28;5038045;28;20116;-74
2020/12/16 04:34:02;;;;;;;153.50;49.67;;;;;;;4.82;99.79;101549.47;5033820;28;20136;-74
2020/12/16 04:36:28;;;;;;;167.25;49.22;;;;;;;4.80;100.00;101554.03;5025178;28;20460;-71
2020/12/16 04:38:53;;;;;;;174.70;50.45;;;;;;;4.83;100.00;101556.47;5040704;28;20112;-75
2020/12/16 04:41:19;;;;;;;155.00;48.38;;;;;;;4.86;99.61;101548.34;5036682;28;20043;-74
2020/12/16 04:43:44;;;;;;;182.55;47.38;;;;;;;4.89;100.00;101548.13;5035049;28;20117;-75
2020/12/16 04:46:16;;;;;;;153.57;47.67;;;;;;;4.78;99.28;101553.25;5020042;28;20116;-74
2020/12/16 04:48:44;;;;;;;166.43;47.72;;;;;;;4.75;99.90;101556.97;5004165;28;20064;-71
2020/12/16 04:51:11;;;;;;;140.77;48.55;;;;;;;4.66;99.77;101541.69;5021160;28;20041;-74
2020/12/16 04:53:36;;;;;;;201.45;47.65;;;;;;;4.72;99.76;101549.22;5003555;28;20120;-72
2020/12/16 04:56:02;;;;;;;235.25;51.47;;;;;;;4.73;100.00;101546.50;5002455;28;20120;-74
2020/12/16 04:58:27;;;;;;;205.32;48.83;;;;;;;4.68;100.00;101545.94;5018268;28;20024;-74
2020/12/16 05:00:53;;;;;;;166.50;46.28;;;;;;;4.75;99.44;101541.09;5014978;28;20560;-71
2020/12/16 05:03:18;;;;;;;183.93;46.10;;;;;;;4.72;99.87;101543.94;5026081;28;20119;-74
2020/12/16 05:05:44;;;;;;;211.30;49.38;;;;;;;4.67;99.88;101546.88;5036922;28;20520;-74
2020/12/16 05:08:11;;;;;;;197.75;49.25;;;;;;;4.54;99.70;101525.66;5038699;28;20140;-74
2020/12/16 05:10:40;;;;;;;184.07;47.35;;;;;;;4.69;99.53;101554.69;5013503;28;20048;-71
2020/12/16 05:13:10;;;;;;;217.07;50.90;;;;;;;4.63;100.00;101565.66;5037916;28;20491;-74
2020/12/16 05:15:36;;;;;;;173.52;51.25;;;;;;;4.63;99.71;101557.75;5021847;28;20037;-75
2020/12/16 05:18:17;;;;;;;205.20;49.38;;;;;;;4.67;99.68;101564.53;5023758;28;20041;-74
2020/12/16 05:20:53;;;;;;;127.97;44.50;;;;;;;4.63;99.40;101563.88;5009923;28;20029;-74
2020/12/16 05:23:25;;;;;;;190.55;44.60;;;;;;;4.68;100.00;101560.94;5005490;28;20040;-75
2020/12/16 05:25:58;;;;;;;98.63;41.20;;;;;;;4.66;99.78;101550.47;5033431;28;20057;-75
2020/12/16 05:28:40;;;;;;;178.65;44.65;;;;;;;4.51;99.80;101535.56;5020060;28;20033;-75
2020/12/16 05:31:10;;;;;;;158.95;42.47;;;;;;;4.65;99.83;101556.69;5014970;28;20701;-72
2020/12/16 05:33:43;;;;;;;153.25;43.90;;;;;;;4.65;99.68;101556.69;5004952;28;20295;-75
2020/12/16 05:36:09;;;;;;;198.32;45.40;;;;;;;4.63;100.00;101552.44;5023403;28;20040;-76
2020/12/16 05:38:53;;;;;;;84.80;41.63;;;;;;;4.65;100.00;101553.22;5020944;28;20033;-73
2020/12/16 05:41:26;;;;;;;184.85;45.90;;;;;;;4.63;100.00;101555.09;5001530;28;20033;-75
2020/12/16 05:43:52;;;;;;;102.20;43.60;;;;;;;4.65;100.00;101556.69;5020406;28;20072;-72
2020/12/16 05:46:24;;;;;;;144.07;43.15;;;;;;;4.63;100.00;101563.03;5041770;28;20528;-75
2020/12/16 05:48:50;;;;;;;149.25;43.40;;;;;;;4.65;100.00;101551.41;5043073;28;20567;-72
2020/12/16 05:51:16;;;;;;;164.23;45.80;;;;;;;4.64;100.00;101544.41;5028531;28;20029;-72
2020/12/16 05:53:41;;;;;;;153.77;43.45;;;;;;;4.69;100.00;101546.75;5041613;28;20488;-75
2020/12/16 05:56:07;;;;;;;125.07;44.13;;;;;;;4.71;100.00;101545.75;5043628;28;20130;-74
2020/12/16 05:58:33;;;;;;;103.13;41.55;;;;;;;4.76;100.00;101561.31;5037269;28;20563;-74
2020/12/16 06:00:59;;;;;;;127.30;44.90;;;;;;;4.79;100.00;101560.25;5027647;28;20496;-74
2020/12/16 06:03:37;;;;;;;115.97;42.10;;;;;;;4.55;100.00;101521.22;5030445;28;20059;-75
2020/12/16 06:06:03;;;;;;;;;;;;;;;4.73;100.00;101564.13;5025716;28;20491;-74
2020/12/16 06:08:34;;;;;;;104.45;41.28;;;;;;;4.75;99.95;101565.72;5040062;28;20023;-74
2020/12/16 06:10:59;;;;;;;109.30;41.17;;;;;;;4.51;100.00;101528.50;5037461;28;20065;-75
2020/12/16 06:13:25;;;;;;;127.10;43.30;;;;;;;4.78;100.00;101567.34;5024230;28;20064;-75
2020/12/16 06:16:01;;;;;;;110.72;40.72;;;;;;;4.81;100.00;101564.53;5044484;28;20064;-74
2020/12/16 06:18:40;;;;;;;73.85;38.00;;;;;;;4.69;100.00;101544.97;5023295;28;20036;-75
2020/12/16 06:21:06;;;;;;;101.95;40.63;;;;;;;4.81;100.00;101563.66;5019485;28;20123;-75
2020/12/16 06:23:39;;;;;;;86.35;39.92;;;;;;;4.86;100.00;101570.34;5026714;28;20484;-74
2020/12/16 06:26:06;;;;;;;124.03;40.05;;;;;;;4.86;100.00;101562.41;5026003;28;20040;-74
2020/12/16 06:28:32;;;;;;;132.25;38.17;;;;;;;4.87;100.00;101561.47;5044820;28;20061;-74
2020/12/16 06:31:20;;;;;;;125.72;36.80;;;;;;;4.79;99.67;101560.25;5040080;28;20479;-72
2020/12/16 06:34:12;;;;;;;115.78;35.35;;;;;;;4.80;99.78;101564.59;5020609;28;20032;-79
2020/12/16 06:36:40;;;;;;;125.85;37.90;;;;;;;4.77;99.36;101565.66;5035138;28;20107;-74
2020/12/16 06:39:23;;;;;;;88.25;35.63;;;;;;;4.70;100.00;101561.69;5035434;28;20033;-74
2020/12/16 06:41:56;;;;;;;121.47;34.40;;;;;;;4.72;100.00;101559.78;5040037;28;20060;-72
2020/12/16 06:44:22;;;;;;;91.35;35.28;;;;;;;4.74;100.00;101561.41;5032269;28;20133;-72
2020/12/16 06:46:54;;;;;;;102.03;34.95;;;;;;;4.76;99.33;101553.38;5029163;28;20083;-75
2020/12/16 06:49:22;;;;;;;99.72;33.53;;;;;;;4.73;99.91;101562.38;5027902;28;20522;-74
2020/12/16 06:51:48;;;;;;;124.07;34.45;;;;;;;4.78;99.37;101563.84;5013732;28;20037;-74
2020/12/16 06:54:18;;;;;;;116.43;34.35;;;;;;;4.71;99.33;101566.91;5038762;28;20570;-74
2020/12/16 06:56:45;;;;;;;147.18;36.22;;;;;;;4.73;100.00;101569.44;5034010;28;20040;-74
2020/12/16 06:59:45;;;;;;;84.85;34.45;;;;;;;4.72;99.96;101560.66;5039990;28;20136;-74
2020/12/16 07:02:11;;;;;;;103.03;34.53;;;;;;;4.78;99.56;101566.47;5041776;28;20126;-72
2020/12/16 07:04:37;;;;;;;86.38;34.92;;;;;;;4.75;99.81;101565.72;5013962;28;20053;-74
2020/12/16 07:07:02;;;;;;;100.88;37.45;;;;;;;4.71;100.00;101564.25;5002868;28;20460;-71
2020/12/16 07:09:32;;;;;;;110.88;40.35;;;;;;;4.77;99.58;101560.38;5040914;28;20037;-71
2020/12/16 07:11:57;;;;;;;133.48;39.70;;;;;;;4.69;100.00;101565.28;5025890;28;20048;-72
2020/12/16 07:14:33;;;;;;;98.05;40.55;;;;;;;4.70;99.75;101559.03;5026355;28;20132;-71
2020/12/16 07:17:09;;;;;;;188.80;44.50;;;;;;;4.46;100.00;101513.88;5038515;28;20450;-75
2020/12/16 07:19:35;;;;;;;168.35;41.42;;;;;;;4.69;99.93;101546.75;5003820;28;20100;-74
2020/12/16 07:22:16;;;;;;;111.05;38.90;;;;;;;4.66;100.00;101565.47;5004134;28;20041;-71
2020/12/16 07:24:51;;;;;;;237.10;41.38;;;;;;;4.70;99.73;101561.69;5023724;28;20034;-74
2020/12/16 07:27:19;;;;;;;116.45;40.85;;;;;;;4.73;100.00;101572.06;5022892;28;20041;-72
2020/12/16 07:29:57;;;;;;;153.10;43.40;;;;;;;4.64;99.57;101555.00;5021396;28;20041;-75
2020/12/16 07:32:23;;;;;;;;;;;;;;;4.66;100.00;101574.25;5009577;28;20087;-75
2020/12/16 07:34:58;;;;;;;114.72;40.00;;;;;;;4.67;99.68;101564.53;5041166;28;19917;-75
2020/12/16 07:37:25;;;;;;;91.82;37.05;;;;;;;4.65;99.87;101574.38;5010530;28;20033;-76
2020/12/16 07:39:55;;;;;;;129.38;41.20;;;;;;;4.70;99.55;101570.47;5009646;28;20029;-72
2020/12/16 07:42:31;;;;;;;119.03;40.97;;;;;;;4.39;99.62;101531.91;5007680;28;20029;-75
2020/12/16 07:44:59;;;;;;;117.93;40.45;;;;;;;4.65;99.12;101571.72;5032341;28;20063;-75
2020/12/16 07:47:24;;;;;;;132.10;41.78;;;;;;;4.50;99.55;101552.38;5027979;28;20063;-73
2020/12/16 07:49:50;;;;;;;95.78;40.45;;;;;;;4.59;99.80;101576.44;5044290;28;20430;-73
2020/12/16 07:52:15;;;;;;;120.30;40.47;;;;;;;4.55;99.96;101566.16;5032974;28;20067;-71
2020/12/16 07:54:41;;;;;;;127.57;40.47;;;;;;;4.63;99.91;101581.53;5020071;28;20135;-72
2020/12/16 07:57:07;;;;;;;101.15;39.53;;;;;;;4.66;99.79;101578.72;5037310;28;20061;-71
2020/12/16 07:59:34;;;;;;;103.40;42.15;;;;;;;4.46;99.45;101561.44;5025783;28;20045;-73
2020/12/16 08:02:15;;;;;;;88.65;41.30;;;;;;;4.49;100.00;101551.53;5015518;28;20131;-74
2020/12/16 08:04:42;;;;;;;130.05;42.17;;;;;;;4.62;100.00;101571.91;5030847;28;20171;-71
2020/12/16 08:07:17;;;;;;;107.50;41.60;;;;;;;4.64;99.69;101570.84;5016594;28;20103;-75
2020/12/16 08:09:50;;;;;;;110.35;40.65;;;;;;;4.71;99.65;101576.59;5040034;28;20025;-73
2020/12/16 08:12:17;;;;;;;111.63;40.00;;;;;;;4.73;99.59;101577.34;5033169;28;20032;-73
2020/12/16 08:14:43;;;;;;;136.10;38.53;;;;;;;4.50;99.14;101547.94;5014081;28;20051;-73
2020/12/16 08:17:09;;;;;;;124.28;38.05;;;;;;;4.70;99.75;101581.06;5032995;28;20069;-73
2020/12/16 08:19:34;;;;;;;109.47;38.45;;;;;;;4.43;98.83;101531.63;5034740;28;20144;-71
2020/12/16 08:22:14;;;;;;;128.68;36.25;;;;;;;4.42;99.15;101539.63;5021375;28;20112;-73
2020/12/16 08:24:40;;;;;;;126.45;37.20;;;;;;;4.69;98.42;101599.63;5021982;28;20230;-75
2020/12/16 08:27:05;;;;;;;104.90;36.17;;;;;;;4.67;99.34;101591.81;5008946;28;20064;-73
2020/12/16 08:29:41;;;;;;;122.60;39.35;;;;;;;4.67;98.83;101590.97;5019151;28;20043;-74
2020/12/16 08:32:06;;;;;;;76.43;36.40;;;;;;;4.69;99.70;101587.28;5020309;28;20052;-74
2020/12/16 08:34:33;;;;;;;100.43;36.70;;;;;;;4.71;99.41;101587.19;5024582;28;20128;-74
2020/12/16 08:36:59;;;;;;;69.80;36.78;;;;;;;4.79;99.28;101587.56;5017344;28;20052;-74
2020/12/16 08:39:25;;;;;;;86.85;38.47;;;;;;;4.81;99.25;101590.09;5009525;28;20036;-74
2020/12/16 08:41:56;;;;;;;71.80;35.47;;;;;;;4.81;98.72;101588.31;5020765;28;20037;-74
2020/12/16 08:44:22;;;;;;;82.75;36.95;;;;;;;4.83;98.74;101580.28;5036645;28;20044;-73
2020/12/16 08:46:48;;;;;;;93.97;34.85;;;;;;;4.77;98.67;101580.66;5029488;28;20052;-73
2020/12/16 08:49:14;;;;;;;86.65;35.88;;;;;;;4.78;98.57;101585.00;5021976;28;20064;-74
2020/12/16 08:51:43;;;;;;;83.20;41.92;;;;;;;4.86;98.64;101595.97;5034315;28;20060;-74
2020/12/16 08:54:08;;;;;;;;;;;;;;;4.78;97.80;101593.78;5020626;28;20622;-74
2020/12/16 08:56:44;;;;;;;111.13;41.60;;;;;;;4.61;97.76;101579.00;5034781;28;20019;-74
2020/12/16 08:59:13;;;;;;;72.05;37.45;;;;;;;4.76;98.50;101603.63;4999836;28;20041;-74
2020/12/16 09:01:40;;;;;;;80.07;37.58;;;;;;;4.77;98.09;101597.38;5032280;28;20064;-75
2020/12/16 09:04:06;;;;;;;104.73;37.13;;;;;;;4.82;98.64;101595.28;5014175;28;20095;-73
2020/12/16 09:06:32;;;;;;;64.90;36.47;;;;;;;4.91;98.85;101599.13;5026456;28;20037;-74
2020/12/16 09:08:57;;;;;;;66.22;35.25;;;;;;;4.93;98.18;101601.72;5024443;28;20649;-74
2020/12/16 09:11:23;;;;;;;59.45;35.80;;;;;;;4.94;98.42;101593.66;5023564;28;20318;-71
2020/12/16 09:13:49;;;;;;;62.10;36.05;;;;;;;4.91;98.29;101572.69;5011505;28;20610;-70
2020/12/16 09:16:24;;;;;;;62.40;36.08;;;;;;;5.08;97.91;101584.00;5007915;28;20400;-71
2020/12/16 09:18:50;;;;;;;58.03;36.22;;;;;;;5.15;98.32;101585.31;5022054;28;20586;-71
2020/12/16 09:21:17;;;;;;;50.88;32.38;;;;;;;5.20;97.53;101569.97;5009805;28;20260;-75
2020/12/16 09:23:43;;;;;;;54.80;34.38;;;;;;;5.25;97.77;101585.53;5006575;28;20051;-75
2020/12/16 09:26:09;;;;;;;49.70;33.63;;;;;;;5.31;97.38;101583.34;4993200;28;20025;-75
2020/12/16 09:28:38;;;;;;;48.67;33.25;;;;;;;5.50;96.80;101592.72;5011941;28;20041;-75
2020/12/16 09:31:12;;;;;;;49.58;32.63;;;;;;;5.61;97.23;101597.31;4993358;28;20087;-75
2020/12/16 09:33:40;;;;;;;45.58;31.42;;;;;;;5.69;95.76;101592.34;5008739;28;20508;-75
2020/12/16 09:36:06;;;;;;;41.50;29.15;;;;;;;5.45;95.47;101561.25;5025215;28;20722;-72
2020/12/16 09:38:31;;;;;;;42.50;28.65;;;;;;;5.61;95.02;101576.13;4989854;28;20108;-75
2020/12/16 09:40:58;;;;;;;42.45;29.15;;;;;;;5.55;95.38;101563.28;5009330;28;20418;-75
2020/12/16 09:43:39;;;;;;;34.70;26.17;;;;;;;5.90;95.29;101602.47;5020244;28;20108;-75
2020/12/16 09:46:15;;;;;;;35.55;26.38;;;;;;;5.86;95.12;101603.59;5003038;28;20337;-75
2020/12/16 09:48:41;;;;;;;35.20;25.27;;;;;;;5.94;95.30;101607.44;5002952;28;20045;-75
2020/12/16 09:51:17;;;;;;;33.65;24.95;;;;;;;5.72;94.89;101573.59;5002748;28;20049;-75
2020/12/16 09:53:43;;;;;;;33.80;25.27;;;;;;;5.78;95.08;101573.19;5001147;28;20104;-75
2020/12/16 09:56:24;;;;;;;31.45;24.63;;;;;;;6.15;94.61;101612.25;4994249;28;20112;-75
2020/12/16 09:58:49;;;;;;;34.25;25.38;;;;;;;6.12;94.52;101613.31;5008133;28;20515;-75
2020/12/16 10:01:15;;;;;;;29.38;22.30;;;;;;;6.25;94.82;101613.31;5005241;28;20056;-76
2020/12/16 10:03:40;;;;;;;28.30;21.30;;;;;;;6.28;94.70;101604.31;5003450;28;20037;-75
2020/12/16 10:06:25;;;;;;;27.40;21.85;;;;;;;6.28;93.87;101591.88;5007151;28;20056;-75
2020/12/16 10:08:52;;;;;;;27.35;21.08;;;;;;;6.32;94.46;101586.38;5025102;28;20124;-75
2020/12/16 10:11:17;;;;;;;26.33;20.67;;;;;;;6.37;94.39;101571.84;4976675;28;20041;-75
2020/12/16 10:13:44;;;;;;;25.30;20.80;;;;;;;6.31;94.26;101564.31;5005376;28;20324;-73
2020/12/16 10:16:09;;;;;;;23.05;18.60;;;;;;;6.52;93.33;101582.31;5008195;28;20034;-75
2020/12/16 10:18:35;;;;;;;24.60;19.77;;;;;;;6.19;93.65;101536.88;5001848;28;20409;-73
2020/12/16 10:21:02;;;;;;;23.38;18.38;;;;;;;6.54;93.67;101586.56;5001137;28;20029;-73
2020/12/16 10:23:27;;;;;;;23.45;19.17;;;;;;;6.54;93.58;101586.56;5004320;28;20393;-74
2020/12/16 10:25:53;;;;;;;23.25;19.05;;;;;;;6.63;93.95;101587.72;5004703;28;22296;-71
2020/12/16 10:28:21;;;;;;;22.20;18.08;;;;;;;6.63;93.82;101582.41;5007424;28;20468;-71
2020/12/16 10:30:48;;;;;;;25.42;18.05;;;;;;;6.73;93.96;101579.97;5000847;28;20045;-74
2020/12/16 10:33:14;;;;;;;22.88;17.40;;;;;;;6.26;93.43;101492.25;5006102;28;20464;-74
2020/12/16 10:35:40;;;;;;;24.35;18.83;;;;;;;6.83;93.17;101564.22;5012556;28;20038;-74
2020/12/16 10:38:05;;;;;;;25.50;18.90;;;;;;;6.86;93.28;101562.19;5009640;28;20036;-74
2020/12/16 10:40:31;;;;;;;22.92;20.02;;;;;;;6.89;92.93;101559.31;4994939;28;20492;-74
2020/12/16 10:43:01;;;;;;;18.60;15.95;;;;;;;6.91;93.16;101556.56;5006474;28;20237;-74
2020/12/16 10:45:27;;;;;;;18.58;15.20;;;;;;;6.86;93.13;101527.72;5011420;28;20053;-74
2020/12/16 10:47:57;;;;;;;18.05;15.73;;;;;;;7.00;93.42;101552.38;5030601;28;20051;-75
2020/12/16 10:50:30;;;;;;;25.75;22.90;;;;;;;7.04;92.97;101557.34;5029868;28;20064;-75
2020/12/16 10:52:56;;;;;;;22.70;18.13;;;;;;;7.08;93.42;101555.31;5027483;28;20562;-75
2020/12/16 10:55:22;;;;;;;21.48;17.77;;;;;;;7.13;93.26;101549.66;5003740;28;20053;-74
2020/12/16 10:57:48;;;;;;;23.50;17.48;;;;;;;7.17;93.12;101540.53;5006814;28;20152;-75
2020/12/16 11:00:13;;;;;;;19.58;15.90;;;;;;;7.22;93.04;101537.50;4993241;28;20509;-75
2020/12/16 11:02:39;;;;;;;22.65;16.45;;;;;;;7.27;93.53;101538.88;5010394;28;20167;-75
2020/12/16 11:05:04;;;;;;;18.90;15.68;;;;;;;7.31;93.05;101527.06;5022856;28;20756;-74
2020/12/16 11:07:30;;;;;;;19.48;14.95;;;;;;;7.24;93.30;101520.53;5009459;28;20122;-74
2020/12/16 11:09:55;;;;;;;18.33;15.93;;;;;;;7.34;93.08;101537.47;5010476;28;20064;-74
2020/12/16 11:12:21;;;;;;;16.38;14.50;;;;;;;7.38;93.17;101532.75;5027412;28;20033;-74